createdAt,value
2018-07-26T00:00:08.167Z,20.40
2018-07-26T00:02:36.397Z,20.40
2018-07-26T00:05:04.966Z,20.40
2018-07-26T00:07:33.414Z,20.40
2018-07-26T00:10:01.977Z,20.50
2018-07-26T00:12:30.200Z,20.40
2018-07-26T00:14:58.426Z,20.40
2018-07-26T00:17:26.788Z,20.40
2018-07-26T00:19:55.045Z,20.40
2018-07-26T00:22:23.350Z,20.30
2018-07-26T00:24:51.591Z,20.30
2018-07-26T00:27:19.794Z,20.20
2018-07-26T00:29:48.011Z,20.00
2018-07-26T00:32:16.243Z,20.00
2018-07-26T00:34:44.462Z,20.10
2018-07-26T00:37:12.682Z,20.00
2018-07-26T00:39:40.905Z,20.00
2018-07-26T00:42:09.113Z,19.90
2018-07-26T00:44:37.329Z,19.90
2018-07-26T00:47:05.546Z,19.80
2018-07-26T00:49:33.757Z,19.80
2018-07-26T00:52:02.046Z,19.80
2018-07-26T00:54:30.272Z,19.70
2018-07-26T00:56:58.481Z,19.70
2018-07-26T00:59:26.689Z,19.70
2018-07-26T01:01:54.910Z,19.80
2018-07-26T01:04:23.127Z,19.80
2018-07-26T01:06:51.339Z,19.60
2018-07-26T01:09:19.561Z,19.60
2018-07-26T01:11:47.790Z,19.50
2018-07-26T01:14:16.023Z,19.60
2018-07-26T01:16:44.226Z,19.50
2018-07-26T01:19:12.471Z,19.50
2018-07-26T01:21:40.704Z,19.40
2018-07-26T01:24:08.919Z,19.30
2018-07-26T01:26:37.138Z,19.30
2018-07-26T01:29:05.341Z,19.40
2018-07-26T01:31:33.562Z,19.40
2018-07-26T01:34:01.847Z,19.40
2018-07-26T01:36:30.100Z,19.50
2018-07-26T01:38:58.324Z,19.40
2018-07-26T01:41:26.528Z,19.40
2018-07-26T01:44:05.962Z,19.50
2018-07-26T01:46:34.185Z,19.30
2018-07-26T01:49:02.382Z,19.30
2018-07-26T01:51:30.604Z,19.20
2018-07-26T01:53:58.811Z,19.20
2018-07-26T01:56:27.025Z,19.20
2018-07-26T01:58:55.244Z,19.10
2018-07-26T02:01:23.479Z,19.10
2018-07-26T02:03:51.685Z,19.00
2018-07-26T02:06:20.009Z,18.90
2018-07-26T02:08:48.211Z,18.90
2018-07-26T02:11:16.429Z,18.90
2018-07-26T02:13:44.629Z,18.90
2018-07-26T02:16:12.863Z,18.90
2018-07-26T02:18:41.075Z,19.00
2018-07-26T02:21:09.292Z,18.90
2018-07-26T02:23:37.502Z,19.00
2018-07-26T02:26:05.744Z,18.90
2018-07-26T02:28:33.963Z,18.80
2018-07-26T02:31:02.240Z,18.80
2018-07-26T02:33:30.411Z,18.80
2018-07-26T02:35:58.635Z,18.80
2018-07-26T02:38:26.841Z,18.70
2018-07-26T02:40:55.058Z,18.70
2018-07-26T02:43:23.264Z,18.80
2018-07-26T02:45:51.515Z,18.80
2018-07-26T02:48:19.729Z,18.70
2018-07-26T02:50:47.941Z,18.60
2018-07-26T02:53:16.158Z,18.60
2018-07-26T02:55:44.392Z,18.60
2018-07-26T02:58:12.630Z,18.60
2018-07-26T03:00:40.862Z,18.60
2018-07-26T03:03:09.085Z,18.60
2018-07-26T03:05:37.318Z,18.60
2018-07-26T03:08:05.639Z,18.60
2018-07-26T03:10:33.844Z,18.70
2018-07-26T03:13:02.057Z,18.70
2018-07-26T03:15:30.270Z,18.80
2018-07-26T03:17:58.494Z,18.70
2018-07-26T03:20:26.722Z,18.60
2018-07-26T03:22:54.962Z,18.60
2018-07-26T03:25:23.186Z,18.50
2018-07-26T03:27:51.423Z,18.40
2018-07-26T03:30:19.704Z,18.30
2018-07-26T03:32:47.928Z,18.50
2018-07-26T03:35:16.149Z,18.50
2018-07-26T03:37:44.383Z,18.50
2018-07-26T03:40:12.590Z,18.50
2018-07-26T03:42:40.806Z,18.50
2018-07-26T03:45:09.018Z,18.50
2018-07-26T03:47:37.247Z,18.60
2018-07-26T03:50:05.474Z,18.70
2018-07-26T03:52:33.714Z,18.70
2018-07-26T03:55:01.918Z,18.80
2018-07-26T03:57:30.129Z,18.70
2018-07-26T03:59:58.348Z,18.70
2018-07-26T04:02:26.590Z,18.60
2018-07-26T04:04:54.801Z,18.60
2018-07-26T04:07:23.048Z,18.50
2018-07-26T04:09:51.250Z,18.50
2018-07-26T04:12:19.464Z,18.50
2018-07-26T04:14:47.682Z,18.60
2018-07-26T04:17:15.890Z,18.50
2018-07-26T04:19:44.116Z,18.60
2018-07-26T04:22:12.331Z,18.50
2018-07-26T04:24:40.541Z,18.60
2018-07-26T04:27:08.767Z,18.60
2018-07-26T04:29:36.995Z,18.60
2018-07-26T04:32:05.299Z,18.60
2018-07-26T04:34:33.494Z,18.70
2018-07-26T04:37:01.755Z,18.60
2018-07-26T04:39:29.984Z,18.50
2018-07-26T04:41:58.232Z,18.50
2018-07-26T04:44:26.456Z,18.50
2018-07-26T04:46:54.666Z,18.60
2018-07-26T04:49:22.947Z,18.60
2018-07-26T04:51:51.150Z,18.60
2018-07-26T04:54:19.369Z,18.70
2018-07-26T04:56:47.577Z,18.70
2018-07-26T04:59:15.786Z,18.80
2018-07-26T05:01:43.999Z,18.90
2018-07-26T05:04:12.222Z,18.80
2018-07-26T05:06:40.449Z,18.80
2018-07-26T05:09:10.375Z,18.80
2018-07-26T05:11:38.601Z,18.90
2018-07-26T05:14:06.856Z,18.90
2018-07-26T05:16:35.193Z,18.90
2018-07-26T05:19:03.486Z,18.90
2018-07-26T05:21:31.653Z,18.90
2018-07-26T05:24:00.012Z,19.00
2018-07-26T05:26:28.247Z,19.00
2018-07-26T05:28:56.471Z,19.10
2018-07-26T05:31:24.804Z,19.10
2018-07-26T05:33:53.024Z,19.10
2018-07-26T05:36:21.235Z,19.10
2018-07-26T05:38:49.446Z,19.20
2018-07-26T05:41:17.757Z,19.30
2018-07-26T05:43:45.977Z,19.40
2018-07-26T05:46:14.187Z,19.40
2018-07-26T05:48:42.414Z,19.50
2018-07-26T05:51:10.611Z,19.50
2018-07-26T05:53:38.814Z,19.70
2018-07-26T05:56:07.027Z,19.70
2018-07-26T05:58:35.234Z,19.80
2018-07-26T06:01:03.478Z,19.80
2018-07-26T06:03:31.689Z,20.00
2018-07-26T06:05:59.907Z,20.10
2018-07-26T06:08:28.112Z,20.20
2018-07-26T06:10:56.319Z,20.30
2018-07-26T06:13:24.525Z,20.30
2018-07-26T06:15:52.745Z,20.40
2018-07-26T06:18:20.955Z,20.40
2018-07-26T06:20:49.163Z,20.50
2018-07-26T06:23:17.379Z,20.60
2018-07-26T06:25:45.614Z,20.70
2018-07-26T06:28:13.898Z,20.70
2018-07-26T06:30:42.087Z,20.80
2018-07-26T06:33:10.303Z,20.90
2018-07-26T06:35:38.546Z,21.00
2018-07-26T06:38:06.744Z,21.10
2018-07-26T06:40:35.029Z,21.20
2018-07-26T06:43:03.246Z,21.30
2018-07-26T06:45:31.479Z,21.40
2018-07-26T06:47:59.719Z,21.60
2018-07-26T06:50:27.931Z,21.80
2018-07-26T06:52:56.142Z,22.10
2018-07-26T06:55:24.354Z,22.50
2018-07-26T06:57:52.653Z,23.10
2018-07-26T07:00:20.901Z,23.40
2018-07-26T07:02:49.095Z,23.70
2018-07-26T07:05:17.378Z,23.90
2018-07-26T07:07:45.604Z,24.20
2018-07-26T07:10:13.831Z,24.50
2018-07-26T07:12:42.067Z,24.70
2018-07-26T07:15:10.294Z,24.80
2018-07-26T07:17:38.620Z,24.90
2018-07-26T07:20:07.646Z,24.90
2018-07-26T07:22:35.870Z,25.10
2018-07-26T07:25:04.393Z,25.20
2018-07-26T07:27:32.626Z,25.30
2018-07-26T07:30:00.855Z,25.40
2018-07-26T07:32:29.090Z,25.40
2018-07-26T07:34:57.302Z,25.50
2018-07-26T07:37:25.536Z,25.60
2018-07-26T07:39:53.742Z,25.70
2018-07-26T07:42:21.967Z,25.80
2018-07-26T07:44:50.172Z,25.90
2018-07-26T07:47:18.451Z,26.10
2018-07-26T07:49:46.662Z,26.30
2018-07-26T07:52:14.878Z,26.60
2018-07-26T07:54:43.081Z,26.90
2018-07-26T07:57:11.335Z,27.20
2018-07-26T07:59:39.547Z,27.70
2018-07-26T08:02:07.804Z,28.20
2018-07-26T08:04:36.066Z,28.70
2018-07-26T08:07:04.299Z,29.20
2018-07-26T08:09:32.522Z,29.70
2018-07-26T08:12:00.728Z,30.20
2018-07-26T08:14:28.934Z,30.60
2018-07-26T08:16:57.166Z,30.90
2018-07-26T08:19:25.476Z,31.30
2018-07-26T08:21:53.693Z,31.60
2018-07-26T08:24:22.754Z,31.90
2018-07-26T08:26:51.729Z,32.10
2018-07-26T08:29:20.012Z,32.30
2018-07-26T08:31:48.237Z,32.50
2018-07-26T08:34:16.457Z,32.70
2018-07-26T08:36:44.675Z,32.90
2018-07-26T08:39:13.411Z,33.00
2018-07-26T08:41:42.011Z,33.00
2018-07-26T08:44:10.292Z,33.10
2018-07-26T08:46:38.607Z,33.20
2018-07-26T08:49:07.077Z,33.30
2018-07-26T08:51:35.308Z,33.20
2018-07-26T08:54:03.543Z,33.40
2018-07-26T08:56:31.750Z,33.50
2018-07-26T08:58:59.991Z,33.60
2018-07-26T09:01:28.234Z,33.70
2018-07-26T09:03:56.454Z,33.60
2018-07-26T09:06:24.674Z,33.70
2018-07-26T09:08:52.895Z,33.50
2018-07-26T09:11:21.101Z,33.50
2018-07-26T09:13:49.354Z,33.60
2018-07-26T09:16:17.555Z,33.70
2018-07-26T09:18:45.772Z,33.90
2018-07-26T09:21:13.990Z,33.70
2018-07-26T09:23:42.286Z,33.80
2018-07-26T09:26:10.565Z,33.90
2018-07-26T09:28:38.778Z,34.10
2018-07-26T09:31:07.027Z,34.00
2018-07-26T09:33:35.252Z,34.10
2018-07-26T09:36:03.463Z,34.00
2018-07-26T09:38:31.695Z,34.10
2018-07-26T09:41:00.007Z,34.00
2018-07-26T09:43:28.300Z,34.30
2018-07-26T09:45:56.530Z,34.30
2018-07-26T09:48:24.768Z,34.40
2018-07-26T09:50:52.973Z,34.30
2018-07-26T09:53:21.213Z,34.30
2018-07-26T09:55:49.519Z,34.30
2018-07-26T09:58:17.897Z,34.40
2018-07-26T10:00:51.486Z,34.40
2018-07-26T10:03:19.747Z,34.50
2018-07-26T10:05:47.967Z,34.50
2018-07-26T10:08:16.311Z,34.50
2018-07-26T10:10:44.525Z,34.50
2018-07-26T10:13:12.734Z,34.60
2018-07-26T10:15:40.949Z,34.60
2018-07-26T10:18:09.162Z,34.80
2018-07-26T10:20:37.376Z,35.00
2018-07-26T10:23:05.590Z,35.20
2018-07-26T10:25:34.191Z,35.20
2018-07-26T10:28:02.423Z,35.40
2018-07-26T10:30:30.691Z,35.70
2018-07-26T10:32:58.934Z,35.70
2018-07-26T10:35:27.364Z,35.90
2018-07-26T10:37:55.603Z,35.90
2018-07-26T10:40:23.834Z,36.00
2018-07-26T10:42:52.034Z,36.20
2018-07-26T10:45:20.259Z,35.90
2018-07-26T10:47:48.463Z,36.20
2018-07-26T10:50:17.822Z,36.00
2018-07-26T10:52:46.150Z,36.10
2018-07-26T10:55:14.461Z,36.40
2018-07-26T10:57:42.687Z,36.40
2018-07-26T11:00:10.916Z,36.60
2018-07-26T11:02:39.337Z,36.70
2018-07-26T11:05:08.863Z,36.90
2018-07-26T11:07:37.375Z,36.80
2018-07-26T11:10:06.864Z,37.00
2018-07-26T11:12:35.338Z,36.90
2018-07-26T11:15:08.087Z,37.00
2018-07-26T11:17:36.285Z,37.10
2018-07-26T11:20:04.526Z,37.10
2018-07-26T11:22:32.748Z,37.20
2018-07-26T11:25:01.034Z,37.10
2018-07-26T11:27:29.235Z,37.10
2018-07-26T11:29:57.485Z,36.80
2018-07-26T11:32:25.696Z,36.70
2018-07-26T11:34:53.861Z,36.80
2018-07-26T11:37:22.497Z,36.80
2018-07-26T11:39:50.713Z,36.60
2018-07-26T11:42:18.915Z,36.50
2018-07-26T11:44:47.116Z,36.20
2018-07-26T11:47:15.305Z,36.30
2018-07-26T11:49:43.514Z,36.30
2018-07-26T11:52:11.747Z,36.20
2018-07-26T11:54:39.966Z,36.10
2018-07-26T11:57:08.183Z,36.00
2018-07-26T11:59:36.460Z,35.90
2018-07-26T12:02:04.787Z,35.70
2018-07-26T12:04:33.036Z,35.30
2018-07-26T12:07:01.311Z,35.00
2018-07-26T12:09:29.563Z,34.60
2018-07-26T12:11:57.784Z,34.20
2018-07-26T12:14:26.109Z,34.00
2018-07-26T12:16:54.270Z,33.80
2018-07-26T12:19:22.612Z,33.60
2018-07-26T12:21:50.850Z,33.60
2018-07-26T12:24:19.375Z,33.70
2018-07-26T12:26:47.643Z,33.70
2018-07-26T12:29:16.039Z,33.80
2018-07-26T12:31:44.241Z,33.90
2018-07-26T12:34:12.700Z,33.90
2018-07-26T12:36:40.930Z,33.90
2018-07-26T12:39:10.523Z,34.00
2018-07-26T12:41:38.933Z,33.90
2018-07-26T12:44:10.230Z,34.00
2018-07-26T12:46:38.456Z,34.00
2018-07-26T12:49:06.645Z,34.00
2018-07-26T12:51:34.996Z,33.90
2018-07-26T12:54:03.223Z,33.80
2018-07-26T12:56:31.854Z,33.80
2018-07-26T12:59:00.051Z,33.50
2018-07-26T13:01:28.316Z,33.40
2018-07-26T13:03:57.132Z,33.20
2018-07-26T13:06:25.350Z,33.10
2018-07-26T13:08:53.943Z,33.10
2018-07-26T13:11:22.206Z,33.20
2018-07-26T13:13:50.423Z,33.20
2018-07-26T13:16:18.678Z,33.30
2018-07-26T13:18:47.703Z,33.40
2018-07-26T13:21:15.988Z,33.30
2018-07-26T13:23:44.205Z,33.40
2018-07-26T13:26:12.416Z,33.30
2018-07-26T13:28:40.639Z,33.30
2018-07-26T13:31:08.847Z,33.20
2018-07-26T13:33:37.098Z,33.10
2018-07-26T13:36:05.468Z,33.10
2018-07-26T13:38:33.685Z,33.00
2018-07-26T13:41:01.894Z,32.90
2018-07-26T13:43:30.139Z,32.80
2018-07-26T13:45:58.331Z,32.70
2018-07-26T13:48:26.576Z,32.60
2018-07-26T13:50:54.785Z,32.50
2018-07-26T13:53:22.997Z,32.50
2018-07-26T13:55:51.242Z,32.50
2018-07-26T13:58:19.481Z,32.40
2018-07-26T14:00:47.861Z,32.40
2018-07-26T14:03:16.089Z,32.50
2018-07-26T14:05:44.306Z,32.60
2018-07-26T14:08:12.530Z,32.50
2018-07-26T14:10:40.880Z,32.50
2018-07-26T14:13:09.102Z,32.50
2018-07-26T14:15:37.317Z,32.70
2018-07-26T14:18:06.113Z,32.70
2018-07-26T14:20:34.331Z,32.70
2018-07-26T14:23:02.579Z,32.70
2018-07-26T14:25:30.782Z,32.70
2018-07-26T14:27:58.981Z,32.70
2018-07-26T14:30:27.173Z,32.70
2018-07-26T14:32:55.405Z,32.70
2018-07-26T14:35:23.631Z,32.80
2018-07-26T14:37:51.839Z,32.80
2018-07-26T14:40:20.049Z,32.80
2018-07-26T14:42:48.263Z,32.70
2018-07-26T14:45:16.492Z,32.70
2018-07-26T14:47:44.716Z,32.80
2018-07-26T14:50:12.915Z,32.70
2018-07-26T14:52:41.118Z,32.60
2018-07-26T14:55:09.310Z,32.60
2018-07-26T14:57:37.510Z,32.60
2018-07-26T15:00:05.982Z,32.60
2018-07-26T15:02:34.436Z,32.50
2018-07-26T15:05:02.646Z,32.50
2018-07-26T15:07:30.849Z,32.60
2018-07-26T15:09:59.088Z,32.50
2018-07-26T15:12:27.331Z,32.60
2018-07-26T15:14:56.054Z,32.60
2018-07-26T15:17:24.298Z,32.60
2018-07-26T15:19:52.507Z,32.50
2018-07-26T15:22:20.723Z,32.50
2018-07-26T15:24:48.934Z,32.50
2018-07-26T15:27:17.364Z,32.50
2018-07-26T16:51:43.331Z,32.50
2018-07-26T16:54:11.529Z,31.90
2018-07-26T16:56:39.746Z,31.90
2018-07-26T16:59:07.929Z,31.90
2018-07-26T17:01:36.160Z,31.80
2018-07-26T17:04:04.392Z,31.80
2018-07-26T17:06:32.631Z,31.90
2018-07-26T17:09:00.969Z,31.90
2018-07-26T17:11:29.211Z,31.90
2018-07-26T17:13:57.414Z,31.90
2018-07-26T17:16:25.622Z,31.80
2018-07-26T17:18:54.047Z,31.70
2018-07-26T17:21:22.179Z,31.70
2018-07-26T17:23:50.396Z,31.70
2018-07-26T17:26:18.704Z,31.70
2018-07-26T17:28:46.937Z,31.70
2018-07-26T17:31:15.119Z,31.70
2018-07-26T17:33:43.329Z,31.60
2018-07-26T17:36:11.543Z,31.70
2018-07-26T17:38:39.759Z,31.70
2018-07-26T17:41:07.963Z,31.80
2018-07-26T17:43:36.905Z,31.80
2018-07-26T17:46:05.174Z,31.70
2018-07-26T17:48:33.466Z,31.60
2018-07-26T17:51:01.742Z,31.50
2018-07-26T17:53:29.934Z,31.50
2018-07-26T17:55:58.208Z,31.40
2018-07-26T17:58:26.542Z,31.40
2018-07-26T18:00:54.770Z,31.30
2018-07-26T18:03:23.049Z,31.30
2018-07-26T18:05:51.300Z,31.30
2018-07-26T18:08:19.558Z,31.20
2018-07-26T18:10:47.803Z,31.20
2018-07-26T18:13:16.064Z,31.10
2018-07-26T18:15:44.277Z,31.10
2018-07-26T18:18:12.566Z,31.10
2018-07-26T18:20:40.784Z,31.10
2018-07-26T18:23:09.130Z,31.10
2018-07-26T18:25:37.383Z,31.00
2018-07-26T18:28:05.602Z,30.90
2018-07-26T18:30:40.247Z,30.90
2018-07-26T18:33:08.494Z,30.70
2018-07-26T18:35:36.695Z,30.70
2018-07-26T18:38:05.109Z,30.60
2018-07-26T18:40:33.298Z,30.50
2018-07-26T18:43:01.523Z,30.50
2018-07-26T18:45:29.723Z,30.50
2018-07-26T18:47:57.946Z,30.40
2018-07-26T18:53:00.646Z,30.20
2018-07-26T18:55:28.842Z,30.10
2018-07-26T18:57:57.062Z,30.00
2018-07-26T19:00:25.312Z,29.80
2018-07-26T19:02:53.542Z,29.80
2018-07-26T19:05:21.733Z,29.60
2018-07-26T19:07:49.955Z,29.40
2018-07-26T19:10:18.157Z,29.20
2018-07-26T19:12:46.385Z,28.90
2018-07-26T19:15:14.578Z,28.70
2018-07-26T19:17:48.359Z,28.50
2018-07-26T19:20:16.570Z,28.40
2018-07-26T19:22:44.807Z,28.30
2018-07-26T19:25:13.024Z,28.20
2018-07-26T19:27:41.246Z,28.10
2018-07-26T19:30:11.914Z,27.90
2018-07-26T19:32:40.157Z,27.80
2018-07-26T19:35:08.390Z,27.60
2018-07-26T19:37:36.783Z,27.50
2018-07-26T19:40:06.836Z,27.40
2018-07-26T19:42:35.035Z,27.30
2018-07-26T19:45:03.372Z,27.20
2018-07-26T19:47:31.584Z,27.30
2018-07-26T19:49:59.890Z,27.30
2018-07-26T19:52:28.122Z,27.30
2018-07-26T19:54:56.358Z,27.30
2018-07-26T19:57:24.587Z,27.20
2018-07-26T19:59:52.820Z,27.10
2018-07-26T20:02:21.039Z,27.00
2018-07-26T20:04:49.266Z,26.80
2018-07-26T20:07:17.468Z,26.70
2018-07-26T20:09:45.702Z,26.60
2018-07-26T20:12:13.895Z,26.40
2018-07-26T20:14:42.125Z,26.30
2018-07-26T20:17:10.330Z,26.20
2018-07-26T20:19:38.615Z,26.20
2018-07-26T20:22:06.854Z,26.20
2018-07-26T20:24:35.074Z,26.20
2018-07-26T20:27:03.286Z,26.10
2018-07-26T20:29:31.590Z,26.00
2018-07-26T20:31:59.956Z,25.90
2018-07-26T20:34:28.256Z,26.00
2018-07-26T20:36:56.493Z,26.00
2018-07-26T20:39:24.786Z,26.10
2018-07-26T20:41:53.001Z,26.20
2018-07-26T20:44:21.409Z,26.20
2018-07-26T20:46:49.698Z,26.20
2018-07-26T20:49:17.919Z,26.40
2018-07-26T20:51:46.200Z,26.40
2018-07-26T20:54:14.411Z,26.40
2018-07-26T20:56:42.650Z,26.50
2018-07-26T20:59:10.862Z,26.60
2018-07-26T21:01:39.095Z,26.70
2018-07-26T21:04:07.309Z,26.80
2018-07-26T21:06:35.528Z,26.80
2018-07-26T21:09:06.167Z,26.80
2018-07-26T21:11:34.398Z,26.70
2018-07-26T21:14:02.606Z,26.80
2018-07-26T21:16:30.826Z,26.90
2018-07-26T21:18:59.064Z,26.90
2018-07-26T21:21:27.322Z,26.90
2018-07-26T21:23:55.530Z,26.80
2018-07-26T21:26:23.748Z,26.80
2018-07-26T21:28:51.973Z,26.80
2018-07-26T21:31:20.210Z,26.80
2018-07-26T21:33:48.650Z,26.70
2018-07-26T21:36:17.858Z,26.60
2018-07-26T21:38:46.068Z,26.70
2018-07-26T21:41:14.496Z,26.70
2018-07-26T21:43:42.715Z,26.60
2018-07-26T21:46:10.918Z,26.60
2018-07-26T21:48:39.137Z,26.60
2018-07-26T21:51:07.357Z,26.50
2018-07-26T21:53:35.682Z,26.60
2018-07-26T21:56:03.878Z,26.50
2018-07-26T21:58:32.092Z,26.50
2018-07-26T22:01:00.332Z,26.50
2018-07-26T22:03:29.922Z,26.50
2018-07-26T22:05:58.125Z,26.30
2018-07-26T22:08:26.380Z,26.30
2018-07-26T22:10:54.574Z,26.20
2018-07-26T22:13:22.780Z,26.20
2018-07-26T22:15:52.077Z,26.10
2018-07-26T22:18:20.696Z,26.00
2018-07-26T22:20:48.912Z,25.90
2018-07-26T22:23:17.739Z,25.60
2018-07-26T22:25:47.258Z,25.50
2018-07-26T22:28:15.639Z,25.20
2018-07-26T22:30:44.252Z,25.10
2018-07-26T22:33:12.657Z,24.90
2018-07-26T22:35:41.506Z,24.70
2018-07-26T22:38:09.900Z,24.50
2018-07-26T22:40:38.127Z,24.30
2018-07-26T22:43:06.656Z,24.20
2018-07-26T22:45:34.921Z,24.00
2018-07-26T22:48:03.236Z,23.90
2018-07-26T22:50:31.574Z,23.80
2018-07-26T22:52:59.966Z,23.70
2018-07-26T22:55:28.235Z,23.50
2018-07-26T22:57:56.465Z,23.40
2018-07-26T23:00:24.747Z,23.30
2018-07-26T23:02:53.015Z,23.30
2018-07-26T23:05:21.258Z,23.30
2018-07-26T23:07:49.588Z,23.20
2018-07-26T23:10:17.862Z,23.20
2018-07-26T23:12:46.099Z,23.10
2018-07-26T23:15:14.304Z,23.00
2018-07-26T23:17:42.530Z,22.90
2018-07-26T23:20:11.671Z,22.90
2018-07-26T23:22:39.877Z,22.90
2018-07-26T23:25:08.839Z,22.80
2018-07-26T23:27:37.151Z,22.80
2018-07-26T23:30:08.996Z,22.80
2018-07-26T23:32:37.216Z,22.80
2018-07-26T23:35:05.759Z,22.90
2018-07-26T23:37:33.982Z,22.90
2018-07-26T23:40:02.206Z,22.90
2018-07-26T23:42:30.416Z,22.80
2018-07-26T23:44:58.648Z,22.70
2018-07-26T23:47:26.838Z,22.60
2018-07-26T23:49:55.043Z,22.60
2018-07-26T23:52:23.240Z,22.60
2018-07-26T23:54:51.567Z,22.50
2018-07-26T23:57:19.779Z,22.50
2018-07-26T23:59:47.979Z,22.40
